Time;durP1;ratioP1;P1;durP2;ratioP2;P2;SDS_P1;SDS_P2;PMS_P1;PMS_P2;Temp;Humidity;BMP_temperature;BMP_pressure;BME280_temperature;BME280_humidity;BME280_pressure;Samples;Min_cycle;Max_cycle;Signal;HPM_P1;HPM_P2
2021/12/09 00:00:32;;;;;;;42.53;20.07;;;;;;;3.29;67.57;99765.94;5456283;32;34760;-66
2021/12/09 00:03:39;;;;;;;41.73;20.73;;;;;;;2.80;70.78;99753.84;5469972;32;34087;-66
2021/12/09 00:06:43;;;;;;;50.07;19.93;;;;;;;2.88;71.10;99751.97;5480869;32;35506;-66
2021/12/09 00:09:45;;;;;;;46.83;21.33;;;;;;;2.10;74.13;99750.66;5464550;32;34184;-66
2021/12/09 00:12:47;;;;;;;43.87;21.53;;;;;;;2.72;71.95;99735.81;5451367;32;34100;-66
2021/12/09 00:15:50;;;;;;;49.43;22.70;;;;;;;1.84;75.26;99734.63;5478172;32;34185;-66
2021/12/09 00:18:52;;;;;;;46.13;19.77;;;;;;;1.71;75.71;99730.47;5491671;32;34017;-65
2021/12/09 00:21:56;;;;;;;44.90;19.77;;;;;;;2.21;74.71;99723.72;5465846;32;34033;-68
2021/12/09 00:24:58;;;;;;;;;;;;;;;2.57;71.61;99724.81;5482194;32;34884;-65
2021/12/09 00:28:00;;;;;;;45.10;20.40;;;;;;;2.47;71.66;99731.06;5471217;32;34527;-72
2021/12/09 00:31:02;;;;;;;57.23;22.67;;;;;;;2.96;71.64;99734.53;5464182;32;34239;-72
2021/12/09 00:34:04;;;;;;;45.90;21.47;;;;;;;2.50;73.37;99737.06;5476868;32;34871;-71
2021/12/09 00:37:33;;;;;;;49.80;21.57;;;;;;;2.94;71.61;99736.28;5483532;32;35155;-66
2021/12/09 00:40:33;;;;;;;46.97;21.43;;;;;;;3.85;67.69;99737.03;5484617;32;34736;-66
2021/12/09 00:43:36;;;;;;;42.83;19.60;;;;;;;3.12;69.24;99732.47;5466608;32;34513;-66
2021/12/09 00:46:38;;;;;;;49.73;21.77;;;;;;;3.18;70.64;99731.50;5483981;32;35184;-71
2021/12/09 00:49:40;;;;;;;53.83;21.93;;;;;;;2.82;71.58;99725.25;5464140;32;34811;-70
2021/12/09 00:52:42;;;;;;;49.57;21.17;;;;;;;2.81;71.87;99714.03;5467982;32;35065;-66
2021/12/09 00:55:45;;;;;;;48.37;21.07;;;;;;;3.51;67.68;99698.78;5479596;32;33647;-66
2021/12/09 00:58:49;;;;;;;45.63;20.67;;;;;;;2.67;71.91;99703.91;5472601;32;34278;-65
2021/12/09 01:01:51;;;;;;;51.00;21.40;;;;;;;2.67;71.94;99703.03;5477427;32;35305;-71
2021/12/09 01:04:53;;;;;;;48.00;21.70;;;;;;;1.90;74.62;99716.38;5463682;32;35460;-71
2021/12/09 01:07:56;;;;;;;50.00;22.13;;;;;;;2.13;73.21;99700.50;5472771;32;33755;-65
2021/12/09 01:10:58;;;;;;;49.60;22.13;;;;;;;1.95;76.22;99693.88;5450431;32;34908;-65
2021/12/09 01:14:01;;;;;;;49.00;21.77;;;;;;;1.94;74.68;99693.91;5454213;32;34581;-71
2021/12/09 01:17:08;;;;;;;50.17;22.47;;;;;;;2.76;71.62;99687.28;5486222;32;34057;-67
2021/12/09 01:20:13;;;;;;;51.17;22.37;;;;;;;2.59;72.88;99684.16;5487072;32;35050;-65
2021/12/09 01:23:15;;;;;;;56.00;22.03;;;;;;;2.42;72.01;99698.28;5480490;32;34097;-66
2021/12/09 01:26:17;;;;;;;53.03;22.87;;;;;;;3.12;70.42;99701.31;5477750;32;34276;-70
2021/12/09 01:29:29;;;;;;;52.17;21.40;;;;;;;2.87;70.79;99697.50;5462904;32;33016;-73
2021/12/09 01:32:31;;;;;;;51.07;21.53;;;;;;;2.00;72.94;99701.56;5469275;32;33838;-71
2021/12/09 01:35:34;;;;;;;48.10;21.83;;;;;;;2.28;73.56;99686.44;5449372;32;34824;-73
2021/12/09 01:38:36;;;;;;;50.87;22.27;;;;;;;3.32;69.13;99679.28;5465830;32;35460;-71
2021/12/09 01:41:39;;;;;;;49.13;21.87;;;;;;;2.89;69.10;99677.53;5482645;32;34670;-71
2021/12/09 01:44:41;;;;;;;48.83;22.47;;;;;;;2.24;72.73;99684.75;5465125;32;35548;-66
2021/12/09 01:47:44;;;;;;;49.70;22.00;;;;;;;2.67;70.85;99671.91;5450756;32;34104;-72
2021/12/09 01:50:46;;;;;;;52.93;22.37;;;;;;;2.61;70.16;99659.03;5483599;32;32739;-65
2021/12/09 01:53:50;;;;;;;48.87;21.33;;;;;;;1.86;75.28;99658.56;5468186;32;34271;-65
2021/12/09 01:56:52;;;;;;;49.67;20.73;;;;;;;2.66;72.90;99646.84;5479789;32;35405;-65
2021/12/09 01:59:54;;;;;;;47.90;20.27;;;;;;;2.53;70.89;99645.38;5478958;32;34549;-67
2021/12/09 02:02:57;;;;;;;46.10;20.93;;;;;;;2.08;72.22;99647.88;5464800;32;35228;-71
2021/12/09 02:06:00;;;;;;;45.70;20.73;;;;;;;2.11;73.51;99643.47;5473427;32;34364;-70
2021/12/09 02:09:02;;;;;;;51.50;20.97;;;;;;;1.98;72.50;99644.56;5457194;32;34489;-67
2021/12/09 02:12:06;;;;;;;49.87;21.27;;;;;;;2.36;72.11;99636.13;5483966;32;34252;-66
2021/12/09 02:15:09;;;;;;;47.90;20.27;;;;;;;2.07;74.22;99652.19;5462386;32;34046;-71
2021/12/09 02:18:14;;;;;;;49.27;20.10;;;;;;;2.10;73.46;99662.50;5483212;32;35266;-65
2021/12/09 02:21:19;;;;;;;49.20;20.90;;;;;;;1.78;75.94;99656.97;5472197;32;34180;-65
2021/12/09 02:24:21;;;;;;;49.53;21.47;;;;;;;1.31;76.34;99643.81;5466196;32;34914;-66
2021/12/09 02:27:24;;;;;;;46.83;20.37;;;;;;;1.07;77.93;99628.59;5486657;32;35213;-73
2021/12/09 02:30:27;;;;;;;43.00;19.23;;;;;;;1.55;76.30;99616.75;5485901;32;34184;-72
2021/12/09 02:33:30;;;;;;;47.73;20.00;;;;;;;2.14;74.43;99632.22;5477068;32;35283;-72
2021/12/09 02:36:37;;;;;;;43.03;18.97;;;;;;;1.69;75.62;99631.22;5483893;32;32963;-70
2021/12/09 02:39:40;;;;;;;46.77;18.67;;;;;;;1.77;73.67;99627.63;5471504;32;35204;-66
2021/12/09 02:42:43;;;;;;;39.45;18.20;;;;;;;2.07;74.52;99641.84;5456253;32;35589;-66
2021/12/09 02:45:52;;;;;;;41.97;19.73;;;;;;;2.66;72.45;99629.53;5448902;32;34367;-70
2021/12/09 02:48:54;;;;;;;42.93;19.00;;;;;;;2.00;72.42;99618.63;5481716;32;35058;-65
2021/12/09 02:51:59;;;;;;;44.63;19.23;;;;;;;2.07;73.64;99623.69;5457894;32;35228;-66
2021/12/09 02:55:02;;;;;;;39.93;17.80;;;;;;;2.43;71.69;99611.78;5464043;32;34043;-66
2021/12/09 02:58:04;;;;;;;42.73;18.07;;;;;;;1.28;76.02;99612.78;5472273;32;34170;-71
2021/12/09 03:01:25;;;;;;;39.23;17.17;;;;;;;1.55;78.58;99658.19;5476681;32;34557;-65
2021/12/09 03:04:36;;;;;;;46.40;18.90;;;;;;;1.79;77.17;99648.31;5477291;32;34531;-72
2021/12/09 03:07:41;;;;;;;42.70;18.37;;;;;;;1.54;76.03;99640.91;5467436;32;34304;-65
2021/12/09 03:10:43;;;;;;;45.30;18.30;;;;;;;2.52;73.09;99623.75;5463295;32;34597;-66
2021/12/09 03:13:48;;;;;;;39.40;17.73;;;;;;;3.28;69.74;99625.69;5470125;32;34280;-66
2021/12/09 03:16:51;;;;;;;39.27;18.30;;;;;;;3.30;68.53;99601.41;5479210;32;34954;-72
2021/12/09 03:19:54;;;;;;;37.83;17.45;;;;;;;2.46;72.91;99592.75;5465775;32;33437;-71
2021/12/09 03:22:56;;;;;;;37.33;17.60;;;;;;;2.62;73.27;99575.13;5441446;32;34114;-66
2021/12/09 03:25:58;;;;;;;38.23;17.47;;;;;;;2.26;73.86;99584.50;5480012;32;34371;-72
2021/12/09 03:29:05;;;;;;;39.97;16.37;;;;;;;3.31;69.79;99605.72;5464033;32;35006;-71
2021/12/09 03:32:10;;;;;;;37.80;17.07;;;;;;;2.96;71.50;99616.81;5467408;32;34895;-72
2021/12/09 03:35:14;;;;;;;35.33;17.27;;;;;;;3.88;66.99;99618.25;5454772;32;35110;-72
2021/12/09 03:38:16;;;;;;;41.67;16.77;;;;;;;3.69;67.63;99604.84;5450982;32;33933;-73
2021/12/09 03:41:18;;;;;;;38.13;16.10;;;;;;;3.51;66.73;99587.94;5467252;32;34395;-71
2021/12/09 03:44:21;;;;;;;42.17;17.47;;;;;;;2.94;71.06;99584.88;5461409;32;34250;-65
2021/12/09 03:47:25;;;;;;;45.83;18.87;;;;;;;2.50;73.29;99576.22;5439511;32;32943;-72
2021/12/09 03:50:28;;;;;;;40.47;16.53;;;;;;;2.82;72.37;99585.12;5459307;32;34003;-65
2021/12/09 03:53:31;;;;;;;34.83;15.97;;;;;;;3.65;67.48;99592.81;5463114;32;34049;-72
2021/12/09 03:56:34;;;;;;;35.50;15.90;;;;;;;3.42;68.30;99587.31;5456118;32;34104;-66
2021/12/09 03:59:37;;;;;;;37.23;16.83;;;;;;;3.73;67.51;99593.47;5469783;32;34791;-72
2021/12/09 04:02:40;;;;;;;35.30;15.13;;;;;;;2.82;70.25;99601.53;5459028;32;34666;-71
2021/12/09 04:05:43;;;;;;;37.60;16.90;;;;;;;3.50;69.24;99603.56;5457215;32;33958;-72
2021/12/09 04:08:48;;;;;;;33.50;15.37;;;;;;;2.91;70.35;99600.53;5464466;32;34866;-72
2021/12/09 04:11:52;;;;;;;35.20;15.00;;;;;;;3.95;66.46;99591.22;5479198;32;35137;-70
2021/12/09 04:14:54;;;;;;;33.55;14.70;;;;;;;4.27;65.30;99594.75;5469910;32;34657;-65
2021/12/09 04:17:56;;;;;;;37.03;15.80;;;;;;;3.59;67.35;99590.34;5471969;32;34611;-66
2021/12/09 04:20:59;;;;;;;36.03;15.97;;;;;;;4.51;63.41;99588.06;5473220;32;35001;-72
2021/12/09 04:24:07;;;;;;;32.27;15.53;;;;;;;3.60;65.40;99581.66;5466620;32;34513;-68
2021/12/09 04:27:10;;;;;;;31.53;14.87;;;;;;;3.52;66.84;99583.59;5469102;32;35473;-66
2021/12/09 04:30:16;;;;;;;32.00;14.60;;;;;;;3.22;69.28;99583.41;5462826;32;34726;-72
2021/12/09 04:33:18;;;;;;;36.87;16.63;;;;;;;3.68;67.81;99564.16;5484223;32;34523;-71
2021/12/09 04:36:21;;;;;;;33.23;15.30;;;;;;;2.49;72.08;99553.78;5465294;32;34246;-65
2021/12/09 04:39:23;;;;;;;31.47;14.43;;;;;;;3.08;70.40;99582.81;5478071;32;34641;-71
2021/12/09 04:42:25;;;;;;;29.63;13.90;;;;;;;2.92;70.51;99597.03;5465771;32;34969;-72
2021/12/09 04:45:30;;;;;;;31.57;14.70;;;;;;;4.30;64.92;99600.72;5466087;32;34434;-65
2021/12/09 04:48:32;;;;;;;29.87;14.70;;;;;;;3.15;69.28;99599.13;5459274;32;34276;-71
2021/12/09 04:51:35;;;;;;;38.40;15.30;;;;;;;2.62;70.93;99601.94;5474317;32;34404;-72
2021/12/09 04:54:41;;;;;;;30.47;13.80;;;;;;;2.91;71.20;99601.38;5479809;32;35258;-73
2021/12/09 04:57:43;;;;;;;29.80;12.83;;;;;;;3.05;69.35;99602.81;5468267;32;35425;-66
2021/12/09 05:00:47;;;;;;;32.13;15.30;;;;;;;3.33;69.65;99597.87;5482755;32;35257;-66
2021/12/09 05:03:51;;;;;;;29.83;14.80;;;;;;;2.40;71.87;99578.16;5477902;32;33663;-66
2021/12/09 05:06:53;;;;;;;31.40;14.00;;;;;;;2.18;72.51;99575.09;5484263;32;35148;-66
2021/12/09 05:09:55;;;;;;;29.10;13.37;;;;;;;2.65;71.31;99582.87;5476539;32;34923;-72
2021/12/09 05:12:58;;;;;;;28.77;13.00;;;;;;;2.93;69.07;99583.16;5463791;32;34854;-71
2021/12/09 05:16:02;;;;;;;35.07;15.13;;;;;;;3.44;68.24;99577.72;5467784;32;35380;-70
2021/12/09 05:19:04;;;;;;;36.67;16.13;;;;;;;2.76;70.45;99577.44;5464913;32;34967;-66
2021/12/09 05:22:07;;;;;;;34.23;14.77;;;;;;;3.22;68.20;99574.72;5483037;32;34377;-71
2021/12/09 05:25:09;;;;;;;33.87;14.40;;;;;;;2.28;71.45;99586.16;5462338;32;35285;-73
2021/12/09 05:28:15;;;;;;;29.07;12.97;;;;;;;2.58;71.24;99582.16;5469720;32;34136;-65
2021/12/09 05:34:49;;;;;;;28.63;14.43;;;;;;;3.01;68.94;99583.00;5460536;32;33909;-73
2021/12/09 05:37:51;;;;;;;34.07;16.10;;;;;;;2.60;71.75;99595.94;5486736;32;34160;-65
2021/12/09 05:40:53;;;;;;;33.07;15.93;;;;;;;3.27;68.23;99591.06;5474100;32;35475;-67
2021/12/09 05:43:56;;;;;;;35.67;15.53;;;;;;;2.66;70.87;99580.25;5468693;32;34674;-72
2021/12/09 05:46:58;;;;;;;35.17;16.90;;;;;;;2.82;71.24;99575.59;5476589;32;34864;-65
2021/12/09 05:50:01;;;;;;;34.00;15.97;;;;;;;2.96;70.10;99581.37;5458412;32;35374;-73
2021/12/09 05:53:03;;;;;;;43.33;18.83;;;;;;;3.32;69.42;99578.00;5482883;32;32526;-72
2021/12/09 05:56:05;;;;;;;37.53;18.03;;;;;;;3.31;69.42;99565.91;5457763;32;34853;-72
2021/12/09 05:59:10;;;;;;;42.60;17.90;;;;;;;3.23;69.91;99571.28;5452051;32;34807;-65
2021/12/09 06:02:16;;;;;;;39.47;18.77;;;;;;;3.42;68.23;99563.91;5481260;32;33341;-72
2021/12/09 06:05:18;;;;;;;47.40;20.07;;;;;;;2.60;72.78;99548.38;5486124;32;34125;-65
2021/12/09 06:08:21;;;;;;;39.40;17.52;;;;;;;2.00;74.85;99518.41;5478284;32;34464;-66
2021/12/09 06:11:24;;;;;;;38.87;17.57;;;;;;;1.93;75.34;99519.38;5465036;32;34141;-71
2021/12/09 06:14:26;;;;;;;40.37;18.77;;;;;;;2.43;74.32;99513.25;5479496;32;34069;-71
2021/12/09 06:17:28;;;;;;;39.00;17.80;;;;;;;2.45;73.34;99526.19;5480895;32;35127;-70
2021/12/09 06:20:31;;;;;;;37.43;16.77;;;;;;;3.31;70.18;99532.12;5456822;32;34534;-66
2021/12/09 06:23:34;;;;;;;40.97;17.73;;;;;;;3.65;67.83;99520.03;5473883;32;35018;-66
2021/12/09 06:26:36;;;;;;;33.83;16.07;;;;;;;2.32;73.79;99535.06;5475868;32;34281;-72
2021/12/09 06:29:39;;;;;;;35.07;16.97;;;;;;;2.63;71.86;99533.59;5478200;32;35202;-72
2021/12/09 06:32:42;;;;;;;34.77;15.80;;;;;;;2.71;71.75;99521.34;5465551;32;34782;-66
2021/12/09 06:35:44;;;;;;;34.00;16.07;;;;;;;3.50;68.13;99502.25;5476533;32;34075;-66
2021/12/09 06:38:47;;;;;;;38.47;16.80;;;;;;;2.39;71.72;99516.81;5467918;32;35242;-72
2021/12/09 06:41:49;;;;;;;35.53;16.37;;;;;;;2.63;71.39;99514.56;5469568;32;35356;-67
2021/12/09 06:44:51;;;;;;;33.37;16.37;;;;;;;2.51;71.10;99517.41;5462338;32;34481;-67
2021/12/09 06:47:54;;;;;;;33.90;15.20;;;;;;;2.13;72.56;99532.00;5471493;32;34325;-72
2021/12/09 06:50:56;;;;;;;33.27;14.93;;;;;;;2.71;70.56;99536.91;5478010;32;34665;-65
2021/12/09 06:53:58;;;;;;;32.50;14.90;;;;;;;2.79;69.92;99528.09;5476912;32;34616;-71
2021/12/09 06:57:01;;;;;;;32.00;13.63;;;;;;;1.93;73.07;99529.75;5482698;32;33425;-66
2021/12/09 07:00:08;;;;;;;34.20;15.43;;;;;;;2.59;70.68;99520.72;5472406;32;35442;-73
2021/12/09 07:03:10;;;;;;;30.87;14.10;;;;;;;2.89;68.92;99511.44;5481105;32;34268;-66
2021/12/09 07:06:13;;;;;;;35.20;15.60;;;;;;;3.16;69.20;99525.56;5473619;32;34202;-67
2021/12/09 07:09:15;;;;;;;27.53;12.17;;;;;;;2.85;69.18;99527.97;5475074;32;34123;-72
2021/12/09 07:12:18;;;;;;;31.47;14.50;;;;;;;3.16;67.88;99523.81;5480028;32;35525;-72
2021/12/09 07:15:20;;;;;;;33.83;13.83;;;;;;;3.06;69.17;99524.03;5474001;32;33994;-71
2021/12/09 07:18:25;;;;;;;35.90;14.33;;;;;;;2.76;70.35;99544.56;5466780;32;34068;-71
2021/12/09 07:21:27;;;;;;;31.73;13.53;;;;;;;2.49;70.22;99545.13;5459515;32;35498;-67
2021/12/09 07:24:32;;;;;;;33.27;14.23;;;;;;;3.07;69.16;99555.16;5449772;32;33984;-66
2021/12/09 07:27:39;;;;;;;33.90;14.37;;;;;;;3.99;65.12;99546.06;5445447;32;34482;-72
2021/12/09 07:30:41;;;;;;;34.60;14.93;;;;;;;3.87;65.91;99545.53;5448753;32;34533;-73
2021/12/09 07:33:44;;;;;;;34.43;14.07;;;;;;;2.32;70.01;99574.84;5463936;32;34154;-67
2021/12/09 07:36:48;;;;;;;34.63;15.00;;;;;;;3.02;67.91;99551.81;5458634;32;35322;-73
2021/12/09 07:39:50;;;;;;;31.77;14.27;;;;;;;2.43;71.12;99541.78;5465997;32;34645;-65
2021/12/09 07:42:52;;;;;;;26.97;12.87;;;;;;;3.17;68.64;99525.53;5471689;32;34394;-66
2021/12/09 07:45:55;;;;;;;27.33;13.07;;;;;;;3.05;67.71;99520.59;5461559;32;34282;-67
2021/12/09 07:48:59;;;;;;;31.93;14.80;;;;;;;2.43;71.34;99520.16;5469883;32;33412;-65
2021/12/09 07:52:04;;;;;;;32.47;14.13;;;;;;;2.79;70.78;99520.31;5445754;32;35341;-66
2021/12/09 07:55:06;;;;;;;37.88;14.93;;;;;;;2.72;70.44;99514.41;5450825;32;35063;-64
2021/12/09 07:58:09;;;;;;;39.57;16.20;;;;;;;2.65;70.81;99510.22;5472967;32;32672;-65
2021/12/09 08:01:11;;;;;;;29.17;14.17;;;;;;;2.96;69.42;99503.50;5466037;32;33681;-66
2021/12/09 08:04:14;;;;;;;30.20;13.87;;;;;;;3.08;68.33;99510.12;5472197;32;33331;-67
2021/12/09 08:07:16;;;;;;;32.00;13.73;;;;;;;3.57;67.06;99509.00;5464511;32;34495;-67
2021/12/09 08:10:23;;;;;;;27.30;13.37;;;;;;;3.26;68.32;99494.12;5453669;32;34089;-66
2021/12/09 08:13:27;;;;;;;30.62;13.50;;;;;;;3.41;66.37;99492.06;5462033;32;34024;-66
2021/12/09 08:16:33;;;;;;;;;;;;;;;2.92;69.28;99483.69;5479716;32;37797;-68
2021/12/09 08:19:37;;;;;;;26.83;12.90;;;;;;;2.65;69.37;99479.09;5468921;32;35791;-65
2021/12/09 08:22:39;;;;;;;26.50;11.63;;;;;;;3.32;66.81;99490.53;5483245;32;35302;-65
2021/12/09 08:25:43;;;;;;;32.20;14.23;;;;;;;2.67;70.59;99503.25;5458989;32;34659;-67
2021/12/09 09:01:12;;;;;;;32.90;13.77;;;;;;;1.18;79.07;99480.94;5521505;31;20942;-76
2021/12/09 09:04:14;;;;;;;29.83;14.47;;;;;;;1.80;77.09;99473.84;5510729;31;171850;-77
2021/12/09 09:07:17;;;;;;;28.23;13.43;;;;;;;1.97;75.49;99463.19;5489278;32;32883;-79
2021/12/09 09:10:24;;;;;;;31.27;14.13;;;;;;;2.75;71.05;99469.34;5505763;32;34727;-82
2021/12/09 09:13:29;;;;;;;27.27;12.40;;;;;;;3.23;70.56;99473.44;5510196;32;34979;-84
2021/12/09 09:16:34;;;;;;;29.90;12.83;;;;;;;2.93;71.43;99479.34;5520119;32;34845;-79
2021/12/09 09:19:36;;;;;;;34.40;14.53;;;;;;;2.51;72.84;99489.75;5520405;32;33787;-78
2021/12/09 09:22:42;;;;;;;34.80;13.70;;;;;;;3.14;69.41;99473.66;5496855;32;33750;-76
2021/12/09 09:25:47;;;;;;;33.00;14.60;;;;;;;3.16;71.42;99477.06;5517587;32;35532;-77
2021/12/09 09:28:50;;;;;;;31.40;14.17;;;;;;;3.81;68.11;99484.13;5515822;32;33797;-77
2021/12/09 09:31:53;;;;;;;28.80;13.97;;;;;;;3.43;70.05;99493.75;5521678;32;35052;-80
2021/12/09 09:34:55;;;;;;;32.43;14.17;;;;;;;2.90;70.95;99495.84;5510133;32;35130;-76
2021/12/09 09:37:57;;;;;;;30.23;14.60;;;;;;;3.24;70.08;99482.09;5520443;32;34418;-76
2021/12/09 09:41:08;;;;;;;31.17;14.17;;;;;;;3.03;71.36;99464.38;5519275;32;34205;-77
2021/12/09 09:44:16;;;;;;;32.33;15.00;;;;;;;3.14;71.84;99459.81;5517765;32;34090;-77
2021/12/09 09:47:19;;;;;;;33.70;14.20;;;;;;;3.02;72.04;99445.37;5502627;32;33992;-80
2021/12/09 09:50:21;;;;;;;33.43;16.07;;;;;;;2.76;73.16;99427.81;5499515;32;35457;-77
2021/12/09 09:53:24;;;;;;;27.40;13.83;;;;;;;2.61;75.09;99407.41;5513185;32;34401;-80
2021/12/09 09:56:27;;;;;;;32.10;14.23;;;;;;;2.43;74.52;99401.72;5519992;32;34263;-78
2021/12/09 09:59:29;;;;;;;32.27;14.37;;;;;;;3.00;74.43;99400.44;5520428;32;35470;-77
2021/12/09 10:02:31;;;;;;;28.83;14.30;;;;;;;2.33;75.25;99404.56;5514921;32;34037;-77
2021/12/09 10:05:37;;;;;;;32.00;14.80;;;;;;;3.10;74.10;99398.47;5521094;32;34198;-79
2021/12/09 10:08:40;;;;;;;28.47;13.73;;;;;;;3.28;73.03;99387.59;5527167;31;34272;-78
2021/12/09 10:11:43;;;;;;;26.42;12.90;;;;;;;2.60;75.64;99384.94;5509843;32;34448;-76
2021/12/09 10:14:48;;;;;;;29.27;13.85;;;;;;;2.43;75.82;99386.16;5492847;32;35540;-78
2021/12/09 10:17:50;;;;;;;29.17;13.57;;;;;;;2.62;75.82;99377.97;5506849;32;35081;-76
2021/12/09 10:20:58;;;;;;;32.20;15.53;;;;;;;2.54;75.88;99391.13;5502492;32;35222;-79
2021/12/09 10:24:07;;;;;;;32.90;15.10;;;;;;;3.03;73.94;99377.00;5509568;32;34945;-78
2021/12/09 10:27:23;;;;;;;34.77;15.20;;;;;;;3.48;71.44;99368.94;5504968;32;34075;-82
2021/12/09 10:30:26;;;;;;;33.20;14.97;;;;;;;3.39;72.73;99370.00;5507902;32;35152;-78
2021/12/09 10:33:29;;;;;;;29.30;13.62;;;;;;;2.80;75.65;99368.91;5506011;32;34841;-76
2021/12/09 10:36:45;;;;;;;30.47;14.43;;;;;;;3.22;73.80;99357.47;5502255;32;33981;-80
2021/12/09 10:40:09;;;;;;;29.53;13.77;;;;;;;4.52;68.14;99334.75;5499181;32;36066;-75
2021/12/09 10:43:17;;;;;;;31.80;13.83;;;;;;;3.96;69.70;99342.47;5503461;32;34240;-76
2021/12/09 10:46:52;;;;;;;30.33;15.07;;;;;;;4.23;68.66;99364.22;5506445;32;33893;-81
2021/12/09 10:53:51;;;;;;;33.28;14.73;;;;;;;3.70;70.97;99361.41;5459791;32;34403;-78
2021/12/09 10:56:53;;;;;;;32.00;15.13;;;;;;;4.28;68.38;99363.19;5507346;32;34097;-74
2021/12/09 10:59:56;;;;;;;27.80;13.73;;;;;;;4.16;68.74;99352.28;5505638;32;35549;-76
2021/12/09 11:03:04;;;;;;;33.08;14.90;;;;;;;4.17;70.30;99351.41;5497605;32;35179;-76
2021/12/09 11:06:18;;;;;;;29.97;14.70;;;;;;;3.65;71.51;99345.94;5513166;32;34149;-80
2021/12/09 11:09:20;;;;;;;;;;;;;;;5.25;65.93;99337.53;5498817;32;33805;-78
2021/12/09 11:12:28;;;;;;;30.23;13.33;;;;;;;4.91;65.94;99339.56;5501871;32;35635;-76
2021/12/09 11:15:55;;;;;;;27.87;13.50;;;;;;;5.09;65.98;99346.78;5507575;32;33855;-79
2021/12/09 11:19:07;;;;;;;31.10;14.20;;;;;;;4.48;65.99;99351.34;5513439;31;34857;-80
2021/12/09 11:22:19;;;;;;;30.73;14.47;;;;;;;5.31;64.95;99332.13;5504760;32;33835;-79
2021/12/09 11:25:38;;;;;;;28.63;14.90;;;;;;;3.73;69.92;99330.13;5504525;32;35366;-76
2021/12/09 11:28:52;;;;;;;33.30;15.50;;;;;;;3.34;73.13;99327.72;5505149;32;32975;-82
2021/12/09 11:35:23;;;;;;;32.27;14.80;;;;;;;4.44;70.63;99303.72;5506159;32;33909;-78
2021/12/09 11:38:55;;;;;;;33.43;15.53;;;;;;;4.45;69.43;99308.06;5510356;32;34974;-77
2021/12/09 11:42:09;;;;;;;32.07;14.40;;;;;;;3.65;71.27;99311.31;5503463;32;33881;-77
2021/12/09 11:45:35;;;;;;;32.07;14.87;;;;;;;4.16;71.23;99305.47;5508403;32;34185;-77
2021/12/09 11:48:38;;;;;;;27.23;13.50;;;;;;;3.55;71.50;99302.94;5515275;32;35035;-74
2021/12/09 11:51:41;;;;;;;30.30;14.15;;;;;;;4.15;69.84;99307.25;5509018;32;34108;-76
2021/12/09 11:54:50;;;;;;;33.50;14.53;;;;;;;3.95;72.24;99309.59;5508077;32;34227;-78
2021/12/09 11:58:01;;;;;;;33.13;15.80;;;;;;;4.33;71.49;99298.03;5514969;32;35275;-79
2021/12/09 12:11:30;;;;;;;30.07;14.47;;;;;;;5.31;65.92;99266.12;5502590;32;34706;-78
2021/12/09 12:14:37;;;;;;;33.97;14.93;;;;;;;4.95;67.79;99265.62;5505715;32;33607;-78
2021/12/09 12:22:24;;;;;;;36.40;15.07;;;;;;;4.34;70.19;99268.50;5424885;32;33849;-77
2021/12/09 12:29:26;;;;;;;32.27;15.60;;;;;;;4.58;69.85;99253.87;5501983;32;32436;-79
2021/12/09 12:33:01;;;;;;;34.45;16.87;;;;;;;4.87;68.21;99256.34;5504642;32;34171;-78
2021/12/09 12:36:22;;;;;;;36.27;17.77;;;;;;;5.21;67.94;99251.72;5506002;32;32916;-79
2021/12/09 12:43:00;;;;;;;37.07;15.77;;;;;;;3.69;72.67;99253.16;5493762;32;34035;-77
2021/12/09 12:52:28;;;;;;;33.47;16.10;;;;;;;4.44;71.34;99258.66;5505248;32;33891;-80
2021/12/09 12:55:36;;;;;;;33.50;15.60;;;;;;;3.85;72.71;99264.78;5518724;32;33834;-76
2021/12/09 12:58:41;;;;;;;31.67;16.23;;;;;;;4.23;70.90;99263.63;5508616;32;35235;-83
2021/12/09 13:02:11;;;;;;;35.30;18.13;;;;;;;4.74;69.67;99272.44;5507222;32;35599;-83
2021/12/09 13:05:24;;;;;;;35.67;15.80;;;;;;;4.73;69.25;99278.53;5502631;32;35051;-77
2021/12/09 13:11:58;;;;;;;33.60;17.50;;;;;;;4.92;67.28;99287.44;5501885;32;31940;-77
2021/12/09 13:15:21;;;;;;;39.90;18.03;;;;;;;5.29;66.98;99287.03;5505407;32;35051;-77
2021/12/09 13:22:17;;;;;;;31.43;15.17;;;;;;;3.56;73.59;99289.03;5493026;32;34429;-81
2021/12/09 13:25:25;;;;;;;36.97;17.67;;;;;;;5.13;68.85;99272.84;5502178;32;35271;-77
2021/12/09 13:28:53;;;;;;;38.40;17.20;;;;;;;4.58;69.88;99272.09;5502724;32;33993;-77
2021/12/09 13:32:10;;;;;;;40.50;16.97;;;;;;;4.10;72.32;99269.25;5495834;32;34367;-76
2021/12/09 13:35:18;;;;;;;37.93;16.77;;;;;;;4.70;70.91;99261.28;5490200;32;35033;-76
2021/12/09 13:48:45;;;;;;;38.20;18.00;;;;;;;3.42;73.82;99265.19;5502468;32;33148;-80
2021/12/09 13:54:53;;;;;;;34.92;18.37;;;;;;;3.83;73.89;99255.34;5502295;32;34136;-78
2021/12/09 13:58:01;;;;;;;35.17;17.40;;;;;;;4.12;72.70;99247.50;5499327;31;34016;-79
2021/12/09 14:01:04;;;;;;;43.60;17.97;;;;;;;4.05;71.75;99246.84;5491421;32;34407;-79
2021/12/09 14:04:08;;;;;;;36.13;17.47;;;;;;;4.82;69.40;99240.00;5499618;32;35949;-80
2021/12/09 14:07:20;;;;;;;44.58;18.08;;;;;;;4.78;68.97;99242.81;5509509;32;33678;-76
2021/12/09 14:10:28;;;;;;;40.67;17.83;;;;;;;4.90;68.35;99237.19;5503883;32;34178;-78
2021/12/09 14:13:34;;;;;;;41.37;18.17;;;;;;;3.92;72.54;99234.28;5501252;32;32898;-75
2021/12/09 14:17:04;;;;;;;35.70;16.40;;;;;;;3.86;72.99;99217.09;5504341;32;36579;-79
2021/12/09 14:20:20;;;;;;;37.17;17.23;;;;;;;3.96;72.28;99217.69;5504155;32;35116;-80
2021/12/09 14:23:22;;;;;;;34.30;16.70;;;;;;;3.47;75.07;99216.53;5504166;32;35340;-76
2021/12/09 14:26:25;;;;;;;39.53;20.00;;;;;;;3.59;75.55;99221.38;5499524;32;35195;-80
2021/12/09 14:29:30;;;;;;;36.87;18.17;;;;;;;3.99;73.21;99218.47;5498387;32;34456;-79
2021/12/09 14:32:33;;;;;;;34.63;16.63;;;;;;;3.23;78.94;99216.34;5488720;32;35199;-85
2021/12/09 14:35:45;;;;;;;35.20;16.40;;;;;;;4.59;71.89;99211.31;5481634;32;33860;-77
2021/12/09 14:38:48;;;;;;;34.10;16.07;;;;;;;4.01;75.17;99218.41;5510838;32;33755;-77
2021/12/09 14:42:09;;;;;;;38.17;17.67;;;;;;;3.34;75.30;99243.75;5502262;32;35041;-79
2021/12/09 14:45:12;;;;;;;39.07;17.97;;;;;;;3.23;78.83;99244.91;5498200;32;34418;-78
2021/12/09 14:48:14;;;;;;;36.17;16.43;;;;;;;4.09;75.07;99232.00;5507571;32;34273;-82
2021/12/09 14:51:25;;;;;;;32.53;16.37;;;;;;;3.00;77.16;99231.69;5505696;32;33755;-79
2021/12/09 14:54:27;;;;;;;36.07;18.13;;;;;;;4.53;72.99;99227.16;5514682;32;34078;-78
2021/12/09 14:57:29;;;;;;;32.40;16.00;;;;;;;4.91;71.43;99230.22;5510973;32;33877;-81
2021/12/09 15:00:46;;;;;;;36.03;16.23;;;;;;;5.07;69.79;99229.63;5495752;32;35591;-78
2021/12/09 15:04:13;;;;;;;35.83;17.23;;;;;;;3.68;75.52;99221.13;5495109;32;34849;-79
2021/12/09 15:07:28;;;;;;;35.53;15.73;;;;;;;5.05;70.82;99214.97;5504008;32;33861;-85
2021/12/09 15:10:34;;;;;;;35.57;16.90;;;;;;;4.60;72.15;99229.50;5509620;32;34101;-78
2021/12/09 15:13:46;;;;;;;34.07;16.67;;;;;;;4.05;74.32;99222.59;5507259;32;35500;-77
2021/12/09 15:17:06;;;;;;;33.63;16.27;;;;;;;4.13;74.54;99223.22;5509325;32;34485;-77
2021/12/09 15:20:11;;;;;;;34.70;17.27;;;;;;;4.26;74.38;99228.91;5510351;32;36247;-84
2021/12/09 15:26:51;;;;;;;35.43;16.43;;;;;;;3.96;75.09;99231.53;5500008;32;33211;-78
2021/12/09 15:29:53;;;;;;;33.73;17.00;;;;;;;3.47;77.30;99230.38;5505692;32;35175;-82
2021/12/09 15:33:00;;;;;;;35.53;18.00;;;;;;;3.37;77.74;99233.31;5505171;32;33760;-83
2021/12/09 15:36:07;;;;;;;38.30;18.10;;;;;;;3.09;79.58;99239.25;5507044;32;35661;-79
2021/12/09 15:39:16;;;;;;;37.27;17.77;;;;;;;3.22;78.62;99240.63;5502511;32;33944;-78
2021/12/09 15:42:25;;;;;;;33.90;17.37;;;;;;;2.32;82.73;99249.84;5510540;32;33958;-80
2021/12/09 15:45:27;;;;;;;36.07;18.07;;;;;;;2.93;80.19;99243.12;5497736;32;34347;-83
2021/12/09 15:48:32;;;;;;;33.53;17.37;;;;;;;3.02;79.03;99229.06;5503356;32;35338;-77
2021/12/09 15:51:39;;;;;;;36.43;16.90;;;;;;;3.12;78.68;99236.56;5508709;32;36934;-83
2021/12/09 15:54:48;;;;;;;32.80;16.33;;;;;;;2.18;80.98;99235.47;5508572;32;33857;-86
2021/12/09 15:57:54;;;;;;;33.73;18.80;;;;;;;2.37;83.03;99241.06;5511726;32;35714;-86
2021/12/09 16:00:56;;;;;;;30.00;15.67;;;;;;;3.18;80.11;99228.63;5501733;32;35341;-81